createdAt,value
2023-04-21T00:00:49.848Z,50.867146
2023-04-21T00:01:49.838Z,50.867172
2023-04-21T00:02:50.044Z,50.867237
2023-04-21T00:03:49.925Z,50.867226
2023-04-21T00:04:50.110Z,50.867222
2023-04-21T00:05:49.890Z,50.867214
2023-04-21T00:06:50.199Z,50.867126
2023-04-21T00:07:49.795Z,50.866993
2023-04-21T00:08:49.790Z,50.866932
2023-04-21T00:09:49.777Z,50.866982
2023-04-21T00:10:49.778Z,50.866966
2023-04-21T00:11:49.770Z,50.866951
2023-04-21T00:12:49.751Z,50.866978
2023-04-21T00:13:49.749Z,50.866940
2023-04-21T00:14:49.736Z,50.866924
2023-04-21T00:41:00.823Z,50.866745
2023-04-21T00:42:00.804Z,50.866779
2023-04-21T00:43:00.806Z,50.866802
2023-04-21T00:44:00.803Z,50.866798
2023-04-21T00:45:00.807Z,50.866798
2023-04-21T00:46:01.619Z,50.866798
2023-04-21T00:47:00.794Z,50.866798
2023-04-21T00:48:00.772Z,50.866798
2023-04-21T00:49:00.732Z,50.866798
2023-04-21T00:50:00.765Z,50.866798
2023-04-21T00:51:00.721Z,50.866798
2023-04-21T00:52:00.727Z,50.866798
2023-04-21T00:53:00.701Z,50.866798
2023-04-21T00:54:00.707Z,50.866798
2023-04-21T00:55:00.696Z,50.866798
2023-04-21T00:56:01.250Z,50.866798
2023-04-21T00:57:02.838Z,50.866798
2023-04-21T00:58:00.670Z,50.866798
2023-04-21T00:59:00.658Z,50.866798
2023-04-21T01:00:00.663Z,50.866798
2023-04-21T01:01:00.665Z,50.866798
2023-04-21T01:02:00.730Z,50.866798
2023-04-21T01:03:00.747Z,50.866798
2023-04-21T01:04:00.874Z,50.866798
2023-04-21T01:05:00.608Z,50.866798
2023-04-21T01:06:00.605Z,50.866798
2023-04-21T01:07:00.604Z,50.866798
2023-04-21T01:08:00.604Z,50.866798
2023-04-21T01:09:00.597Z,50.866798
2023-04-21T01:10:00.568Z,50.866798
2023-04-21T01:11:00.575Z,50.866798
2023-04-21T01:12:00.578Z,50.866798
2023-04-21T01:13:00.553Z,50.866798
2023-04-21T01:14:01.171Z,50.866798
2023-04-21T01:15:00.543Z,50.866798
2023-04-21T01:16:00.597Z,50.866798
2023-04-21T01:17:00.579Z,50.866798
2023-04-21T01:18:00.536Z,50.866798
2023-04-21T01:19:00.504Z,50.866798
2023-04-21T01:20:00.496Z,50.866798
2023-04-21T01:21:00.495Z,50.866798
2023-04-21T01:22:00.488Z,50.866798
2023-04-21T01:23:00.487Z,50.866798
2023-04-21T01:24:00.464Z,50.866798
2023-04-21T01:25:00.481Z,50.866798
2023-04-21T01:26:00.453Z,50.866798
2023-04-21T01:27:00.445Z,50.866798
2023-04-21T01:28:00.434Z,50.866798
2023-04-21T01:29:00.467Z,50.866798
2023-04-21T01:30:00.433Z,50.866898
2023-04-21T01:31:00.434Z,50.866894
2023-04-21T01:32:00.435Z,50.866814
2023-04-21T01:33:00.469Z,50.866898
2023-04-21T01:34:00.388Z,50.866901
2023-04-21T01:35:00.385Z,50.866909
2023-04-21T01:36:00.381Z,50.866867
2023-04-21T01:37:00.378Z,50.866783
2023-04-21T01:38:00.368Z,50.866764
2023-04-21T01:39:00.369Z,50.866753
2023-04-21T01:40:00.372Z,50.866783
2023-04-21T01:41:00.336Z,50.866779
2023-04-21T01:42:00.329Z,50.866779
2023-04-21T01:43:00.323Z,50.866779
2023-04-21T01:44:00.318Z,50.866772
2023-04-21T01:45:00.306Z,50.866798
2023-04-21T01:46:00.356Z,50.866802
2023-04-21T01:47:00.290Z,50.866768
2023-04-21T01:48:00.299Z,50.866756
2023-04-21T01:49:01.193Z,50.866760
2023-04-21T01:50:00.340Z,50.866779
2023-04-21T01:51:00.267Z,50.866825
2023-04-21T01:52:00.247Z,50.866737
2023-04-21T01:53:00.248Z,50.866753
2023-04-21T01:54:00.238Z,50.866749
2023-04-21T01:55:00.231Z,50.866749
2023-04-21T01:56:00.221Z,50.866749
2023-04-21T01:57:00.239Z,50.866756
2023-04-21T01:58:00.205Z,50.866718
2023-04-21T01:59:00.208Z,50.866680
2023-04-21T02:00:00.685Z,50.866749
2023-04-21T02:01:00.320Z,50.866653
2023-04-21T02:02:00.302Z,50.866646
2023-04-21T02:03:00.850Z,50.866722
2023-04-21T02:04:00.963Z,50.866882
2023-04-21T02:05:00.154Z,50.866871
2023-04-21T02:06:00.140Z,50.866810
2023-04-21T02:07:00.170Z,50.866913
2023-04-21T02:08:01.114Z,50.867050
2023-04-21T02:09:00.102Z,50.867218
2023-04-21T02:10:00.773Z,50.867050
2023-04-21T02:11:00.096Z,50.866875
2023-04-21T02:12:00.116Z,50.866810
2023-04-21T02:13:00.074Z,50.866894
2023-04-21T02:14:00.092Z,50.866821
2023-04-21T02:15:00.063Z,50.866768
2023-04-21T02:16:11.978Z,50.866653
2023-04-21T02:17:02.063Z,50.866772
2023-04-21T02:18:00.098Z,50.866714
2023-04-21T02:19:00.036Z,50.866814
2023-04-21T02:20:01.044Z,50.866730
2023-04-21T02:21:01.012Z,50.866768
2023-04-21T02:22:00.007Z,50.866806
2023-04-21T02:22:59.987Z,50.866817
2023-04-21T02:23:59.989Z,50.867027
2023-04-21T02:24:59.988Z,50.866924
2023-04-21T02:25:59.969Z,50.866806
2023-04-21T02:26:59.959Z,50.866859
2023-04-21T02:28:00.983Z,50.866821
2023-04-21T02:29:00.692Z,50.866810
2023-04-21T02:29:59.933Z,50.866871
2023-04-21T02:30:59.940Z,50.866882
2023-04-21T02:32:05.576Z,50.866837
2023-04-21T02:33:01.980Z,50.866997
2023-04-21T02:33:59.929Z,50.867016
2023-04-21T02:34:59.911Z,50.866917
2023-04-21T02:35:59.897Z,50.866863
2023-04-21T02:36:59.881Z,50.866829
2023-04-21T02:37:59.869Z,50.866711
2023-04-21T02:38:59.869Z,50.866768
2023-04-21T02:39:59.854Z,50.866814
2023-04-21T02:40:59.836Z,50.866905
2023-04-21T02:41:59.844Z,50.866920
2023-04-21T02:42:59.820Z,50.866837
2023-04-21T02:43:59.814Z,50.866760
2023-04-21T02:44:59.805Z,50.866955
2023-04-21T02:45:59.797Z,50.866856
2023-04-21T02:46:59.871Z,50.866810
2023-04-21T02:47:59.836Z,50.866810
2023-04-21T02:48:59.779Z,50.866798
2023-04-21T02:49:59.771Z,50.866722
2023-04-21T02:50:59.824Z,50.866718
2023-04-21T02:51:59.759Z,50.866714
2023-04-21T02:52:59.753Z,50.866741
2023-04-21T02:53:59.735Z,50.866726
2023-04-21T02:54:59.720Z,50.866737
2023-04-21T02:55:59.716Z,50.866703
2023-04-21T02:56:59.720Z,50.866699
2023-04-21T02:57:59.704Z,50.866695
2023-04-21T02:58:59.733Z,50.866676
2023-04-21T02:59:59.690Z,50.866714
2023-04-21T03:00:59.716Z,50.866783
2023-04-21T03:01:59.670Z,50.866718
2023-04-21T03:02:59.769Z,50.866802
2023-04-21T03:03:59.709Z,50.866837
2023-04-21T03:04:59.640Z,50.866753
2023-04-21T03:05:59.638Z,50.866814
2023-04-21T03:06:59.627Z,50.866802
2023-04-21T03:07:59.651Z,50.866795
2023-04-21T03:08:59.613Z,50.866798
2023-04-21T03:09:59.607Z,50.866745
2023-04-21T03:10:59.612Z,50.866749
2023-04-21T03:11:59.592Z,50.866802
2023-04-21T03:12:59.589Z,50.866821
2023-04-21T03:13:59.581Z,50.866764
2023-04-21T03:14:59.569Z,50.866802
2023-04-21T03:15:59.626Z,50.866791
2023-04-21T03:16:59.617Z,50.866863
2023-04-21T03:17:59.613Z,50.866833
2023-04-21T03:18:59.549Z,50.866867
2023-04-21T03:19:59.533Z,50.866840
2023-04-21T03:20:59.550Z,50.866795
2023-04-21T03:21:59.519Z,50.866756
2023-04-21T03:22:59.514Z,50.866810
2023-04-21T03:23:59.512Z,50.866837
2023-04-21T03:24:59.504Z,50.866798
2023-04-21T03:25:59.489Z,50.866768
2023-04-21T03:26:59.476Z,50.866772
2023-04-21T03:27:59.482Z,50.866840
2023-04-21T03:28:59.487Z,50.866810
2023-04-21T03:29:59.455Z,50.866760
2023-04-21T03:30:59.449Z,50.866699
2023-04-21T03:31:59.471Z,50.866787
2023-04-21T03:32:59.450Z,50.866688
2023-04-21T03:33:59.427Z,50.866623
2023-04-21T03:34:59.403Z,50.866695
2023-04-21T03:35:59.401Z,50.866707
2023-04-21T03:36:59.399Z,50.866817
2023-04-21T03:38:00.497Z,50.866825
2023-04-21T03:39:12.717Z,50.866798
2023-04-21T03:40:01.384Z,50.866680
2023-04-21T03:40:59.374Z,50.866627
2023-04-21T03:41:59.361Z,50.866684
2023-04-21T03:42:59.347Z,50.866779
2023-04-21T03:43:59.346Z,50.866745
2023-04-21T03:44:59.325Z,50.866756
2023-04-21T03:45:59.342Z,50.866905
2023-04-21T03:46:59.309Z,50.866833
2023-04-21T03:47:59.343Z,50.866673
2023-04-21T03:49:03.232Z,50.866703
2023-04-21T03:50:00.225Z,50.866638
2023-04-21T03:50:59.287Z,50.866665
2023-04-21T03:51:59.336Z,50.866760
2023-04-21T03:52:59.266Z,50.866867
2023-04-21T03:53:59.265Z,50.866802
2023-04-21T03:54:59.239Z,50.866714
2023-04-21T03:55:59.238Z,50.866749
2023-04-21T03:56:59.228Z,50.866825
2023-04-21T03:57:59.219Z,50.866787
2023-04-21T03:58:59.216Z,50.866753
2023-04-21T03:59:59.198Z,50.866760
2023-04-21T04:00:59.188Z,50.866776
2023-04-21T04:01:59.238Z,50.866779
2023-04-21T04:02:59.257Z,50.866798
2023-04-21T04:03:59.383Z,50.866779
2023-04-21T04:04:59.273Z,50.866737
2023-04-21T04:05:59.157Z,50.866756
2023-04-21T04:06:59.148Z,50.866737
2023-04-21T04:07:59.138Z,50.866795
2023-04-21T04:08:59.128Z,50.866776
2023-04-21T04:09:59.153Z,50.866791
2023-04-21T04:10:59.120Z,50.866817
2023-04-21T04:11:59.106Z,50.866795
2023-04-21T04:12:59.789Z,50.866776
2023-04-21T04:13:59.102Z,50.866753
2023-04-21T04:14:59.086Z,50.866745
2023-04-21T04:15:59.162Z,50.866737
2023-04-21T04:16:59.085Z,50.866756
2023-04-21T04:17:59.139Z,50.866756
2023-04-21T04:18:59.056Z,50.866741
2023-04-21T04:19:59.784Z,50.866745
2023-04-21T04:21:00.031Z,50.866764
2023-04-21T04:21:59.034Z,50.866756
2023-04-21T04:22:59.009Z,50.866737
2023-04-21T04:23:59.004Z,50.866760
2023-04-21T04:24:59.024Z,50.866768
2023-04-21T04:25:58.999Z,50.866756
2023-04-21T04:26:58.985Z,50.866737
2023-04-21T04:27:59.788Z,50.866741
2023-04-21T04:28:59.970Z,50.866714
2023-04-21T04:29:58.959Z,50.866745
2023-04-21T04:30:58.978Z,50.866745
2023-04-21T04:31:58.955Z,50.866753
2023-04-21T04:32:58.946Z,50.866776
2023-04-21T04:33:58.925Z,50.866745
2023-04-21T04:34:58.964Z,50.866760
2023-04-21T04:35:58.916Z,50.866741
2023-04-21T04:36:58.903Z,50.866695
2023-04-21T04:37:58.911Z,50.866730
2023-04-21T04:38:58.888Z,50.866722
2023-04-21T04:39:58.893Z,50.866741
2023-04-21T04:40:58.907Z,50.866703
2023-04-21T04:41:58.882Z,50.866768
2023-04-21T04:42:58.848Z,50.866806
2023-04-21T04:44:00.746Z,50.866814
2023-04-21T04:44:58.844Z,50.866825
2023-04-21T04:45:58.832Z,50.866669
2023-04-21T04:46:59.895Z,50.866707
2023-04-21T04:47:58.858Z,50.866848
2023-04-21T04:48:59.731Z,50.866779
2023-04-21T04:49:59.816Z,50.866772
2023-04-21T04:50:59.786Z,50.866764
2023-04-21T04:51:58.789Z,50.866745
2023-04-21T04:52:58.785Z,50.866730
2023-04-21T04:53:58.792Z,50.866718
2023-04-21T04:54:58.765Z,50.866737
2023-04-21T04:55:58.750Z,50.866734
2023-04-21T04:56:58.735Z,50.866718
2023-04-21T04:57:58.742Z,50.866722
2023-04-21T04:58:58.729Z,50.866737
2023-04-21T04:59:58.717Z,50.866737
2023-04-21T05:00:58.722Z,50.866745
2023-04-21T05:01:58.794Z,50.866722
2023-04-21T05:02:58.850Z,50.866734
2023-04-21T05:03:58.951Z,50.866730
2023-04-21T05:04:58.811Z,50.866726
2023-04-21T05:05:58.674Z,50.866680
2023-04-21T05:06:58.688Z,50.866703
2023-04-21T05:07:58.658Z,50.866718
2023-04-21T05:08:58.646Z,50.866699
2023-04-21T05:09:58.641Z,50.866688
2023-04-21T05:10:58.625Z,50.866680
2023-04-21T05:11:58.680Z,50.866665
2023-04-21T05:12:58.620Z,50.866718
2023-04-21T05:13:58.607Z,50.866737
2023-04-21T05:14:58.601Z,50.866791
2023-04-21T05:15:58.611Z,50.866737
2023-04-21T05:16:58.731Z,50.866669
2023-04-21T05:17:58.613Z,50.866730
2023-04-21T05:18:58.568Z,50.866711
2023-04-21T05:19:58.570Z,50.866734
2023-04-21T05:20:58.563Z,50.866634
2023-04-21T05:21:58.577Z,50.866692
2023-04-21T05:22:58.571Z,50.866699
2023-04-21T05:23:58.528Z,50.866692
2023-04-21T05:24:58.536Z,50.866676
2023-04-21T05:25:58.515Z,50.866673
2023-04-21T05:26:58.551Z,50.866692
2023-04-21T05:27:58.496Z,50.866695
2023-04-21T05:28:58.541Z,50.866673
2023-04-21T05:29:59.256Z,50.866703
2023-04-21T05:30:58.514Z,50.866714
2023-04-21T05:31:59.280Z,50.866703
2023-04-21T05:32:58.527Z,50.866718
2023-04-21T05:33:58.455Z,50.866726
2023-04-21T05:34:58.451Z,50.866714
2023-04-21T05:35:58.448Z,50.866753
2023-04-21T05:36:59.324Z,50.866722
2023-04-21T05:37:58.437Z,50.866680
2023-04-21T05:38:58.412Z,50.866657
2023-04-21T05:39:58.415Z,50.866650
2023-04-21T05:40:58.406Z,50.866653
2023-04-21T05:41:58.401Z,50.866638
2023-04-21T05:42:58.388Z,50.866688
2023-04-21T05:43:58.384Z,50.866650
2023-04-21T05:44:58.426Z,50.866680
2023-04-21T05:45:58.445Z,50.866680
2023-04-21T05:46:58.423Z,50.866707
2023-04-21T05:47:58.433Z,50.866657
2023-04-21T05:48:58.353Z,50.866764
2023-04-21T05:49:58.366Z,50.866695
2023-04-21T05:50:58.331Z,50.866646
2023-04-21T05:51:59.307Z,50.866627
2023-04-21T05:52:58.311Z,50.866547
2023-04-21T05:53:58.311Z,50.866543
2023-04-21T05:54:58.306Z,50.866539
2023-04-21T05:55:58.285Z,50.866562
2023-04-21T05:56:59.234Z,50.866573
2023-04-21T05:57:59.284Z,50.866604
2023-04-21T05:58:58.330Z,50.866592
2023-04-21T05:59:58.340Z,50.866600
2023-04-21T06:00:58.338Z,50.866695
2023-04-21T06:01:58.293Z,50.866596
2023-04-21T06:02:58.419Z,50.866608
2023-04-21T06:03:58.465Z,50.866638
2023-04-21T06:04:58.373Z,50.866585
2023-04-21T06:05:58.422Z,50.866444
2023-04-21T06:06:58.195Z,50.866405
2023-04-21T06:07:58.183Z,50.866245
2023-04-21T06:08:58.201Z,50.866436
2023-04-21T06:09:58.188Z,50.866394
2023-04-21T06:10:58.163Z,50.866230
2023-04-21T06:11:58.157Z,50.866684
2023-04-21T06:12:58.153Z,50.866879
2023-04-21T06:13:58.147Z,50.866806
2023-04-21T06:14:58.129Z,50.866764
2023-04-21T06:15:58.170Z,50.866875
2023-04-21T06:16:58.109Z,50.866859
2023-04-21T06:17:58.162Z,50.866756
2023-04-21T06:18:58.142Z,50.866806
2023-04-21T06:19:58.094Z,50.866825
2023-04-21T06:20:58.098Z,50.866852
2023-04-21T06:21:58.095Z,50.866753
2023-04-21T06:22:58.089Z,50.866810
2023-04-21T06:23:58.103Z,50.866745
2023-04-21T06:24:58.801Z,50.866760
2023-04-21T06:25:58.047Z,50.866707
2023-04-21T06:54:06.313Z,50.866661
2023-04-21T06:55:06.335Z,50.866676
2023-04-21T06:56:06.337Z,50.866676
2023-04-21T06:57:06.302Z,50.866676
2023-04-21T06:58:06.277Z,50.866676
2023-04-21T06:59:06.280Z,50.866676
2023-04-21T07:00:06.869Z,50.866676
2023-04-21T07:01:06.872Z,50.866676
2023-04-21T07:02:06.298Z,50.866676
2023-04-21T07:03:06.383Z,50.866676
2023-04-21T07:04:06.416Z,50.866676
2023-04-21T07:05:06.930Z,50.866776
2023-04-21T07:06:06.229Z,50.866787
2023-04-21T07:07:06.265Z,50.866810
2023-04-21T07:08:06.228Z,50.866791
2023-04-21T07:09:06.238Z,50.866817
2023-04-21T07:10:06.210Z,50.866882
2023-04-21T07:11:06.223Z,50.866879
2023-04-21T07:12:06.211Z,50.866867
2023-04-21T07:13:08.133Z,50.866829
2023-04-21T07:14:06.185Z,50.866852
2023-04-21T07:15:06.218Z,50.866856
2023-04-21T07:16:06.178Z,50.866810
2023-04-21T07:17:06.240Z,50.866844
2023-04-21T07:18:06.224Z,50.866779
2023-04-21T07:19:06.151Z,50.866745
2023-04-21T07:20:06.153Z,50.866776
2023-04-21T07:21:06.139Z,50.866783
2023-04-21T07:22:06.132Z,50.866810
2023-04-21T07:23:06.926Z,50.866760
2023-04-21T07:24:06.156Z,50.866756
2023-04-21T07:25:06.126Z,50.866714
2023-04-21T07:26:06.084Z,50.866730
2023-04-21T07:27:06.076Z,50.866768
2023-04-21T07:28:06.093Z,50.866787
2023-04-21T07:29:06.065Z,50.866825
2023-04-21T07:30:06.065Z,50.866776
2023-04-21T07:31:06.101Z,50.866776
2023-04-21T07:32:06.870Z,50.866848
2023-04-21T07:33:06.234Z,50.866829
2023-04-21T07:34:06.861Z,50.866863
2023-04-21T07:35:06.018Z,50.866905
2023-04-21T07:36:06.018Z,50.866730
2023-04-21T07:37:06.002Z,50.866795
2023-04-21T07:38:05.988Z,50.866741
2023-04-21T07:39:06.011Z,50.866741
2023-04-21T07:40:05.996Z,50.866798
2023-04-21T07:41:05.970Z,50.866825
2023-04-21T07:42:05.958Z,50.866779
2023-04-21T07:43:05.956Z,50.866821
2023-04-21T07:44:05.939Z,50.866776
2023-04-21T07:45:05.930Z,50.866779
2023-04-21T07:46:05.997Z,50.866776
2023-04-21T07:47:05.911Z,50.866787
2023-04-21T07:48:05.942Z,50.866783
2023-04-21T07:49:05.953Z,50.866776
2023-04-21T07:50:05.927Z,50.866776
2023-04-21T07:51:05.897Z,50.866783
2023-04-21T07:52:05.873Z,50.866688
2023-04-21T07:53:05.905Z,50.866707
2023-04-21T07:54:05.875Z,50.866737
2023-04-21T07:55:05.856Z,50.866741
2023-04-21T07:56:05.837Z,50.866768
2023-04-21T07:57:05.816Z,50.866756
2023-04-21T07:58:05.824Z,50.866753
2023-04-21T07:59:05.875Z,50.866753
2023-04-21T08:00:05.879Z,50.866787
2023-04-21T08:01:05.796Z,50.866764
2023-04-21T08:02:05.862Z,50.866760
2023-04-21T08:03:05.896Z,50.866753
2023-04-21T08:04:05.901Z,50.866795
2023-04-21T08:05:05.854Z,50.866825
2023-04-21T08:06:05.977Z,50.866764
2023-04-21T08:07:05.998Z,50.866741
2023-04-21T08:08:05.731Z,50.866772
2023-04-21T08:09:05.761Z,50.866798
2023-04-21T08:10:05.713Z,50.866783
2023-04-21T08:11:05.723Z,50.866798
2023-04-21T08:12:05.706Z,50.866772
2023-04-21T08:13:05.713Z,50.866699
2023-04-21T08:14:05.705Z,50.866692
2023-04-21T08:15:05.700Z,50.866711
2023-04-21T08:16:05.775Z,50.866722
2023-04-21T08:17:05.675Z,50.866753
2023-04-21T08:18:05.688Z,50.866837
2023-04-21T08:19:05.670Z,50.866924
2023-04-21T08:20:05.649Z,50.866756
2023-04-21T08:21:05.703Z,50.866627
2023-04-21T08:22:05.783Z,50.866650
2023-04-21T08:23:05.655Z,50.866745
2023-04-21T08:24:05.605Z,50.866840
2023-04-21T08:25:05.606Z,50.866817
2023-04-21T08:26:06.388Z,50.866806
2023-04-21T08:27:05.578Z,50.866833
2023-04-21T08:28:05.631Z,50.866829
2023-04-21T08:29:05.592Z,50.866833
2023-04-21T08:30:05.595Z,50.866890
2023-04-21T08:31:05.599Z,50.867027
2023-04-21T08:32:05.637Z,50.867058
2023-04-21T08:33:05.560Z,50.866875
2023-04-21T08:34:05.549Z,50.866821
2023-04-21T08:35:05.548Z,50.866741
2023-04-21T08:36:12.491Z,50.866741
2023-04-21T08:37:07.523Z,50.866707
2023-04-21T08:38:05.530Z,50.866699
2023-04-21T08:39:05.543Z,50.866688
2023-04-21T08:40:05.476Z,50.866745
2023-04-21T08:41:05.514Z,50.866722
2023-04-21T08:42:05.501Z,50.866745
2023-04-21T08:43:05.490Z,50.866768
2023-04-21T08:44:05.459Z,50.866718
2023-04-21T08:45:05.529Z,50.866703
2023-04-21T08:46:05.512Z,50.866764
2023-04-21T08:52:13.354Z,50.866581
2023-04-21T08:53:13.350Z,50.866623
2023-04-21T08:54:13.344Z,50.866692
2023-04-21T08:55:13.373Z,50.866669
2023-04-21T08:56:13.387Z,50.866756
2023-04-21T08:57:15.927Z,50.866783
2023-04-21T08:58:14.340Z,50.866711
2023-04-21T08:59:13.394Z,50.866756
2023-04-21T09:00:13.294Z,50.866829
2023-04-21T09:01:13.335Z,50.866783
2023-04-21T09:02:13.410Z,50.866760
2023-04-21T09:03:24.974Z,50.866741
2023-04-21T09:04:15.349Z,50.866772
2023-04-21T09:05:13.580Z,50.866802
2023-04-21T09:06:13.562Z,50.866776
2023-04-21T09:07:13.232Z,50.866787
2023-04-21T09:08:13.212Z,50.866779
2023-04-21T09:09:13.190Z,50.866776
2023-04-21T09:10:13.229Z,50.866814
2023-04-21T09:11:13.199Z,50.866760
2023-04-21T09:12:13.210Z,50.866798
2023-04-21T09:13:13.196Z,50.866768
2023-04-21T09:14:13.175Z,50.866737
2023-04-21T09:15:13.237Z,50.866791
2023-04-21T09:16:13.270Z,50.866764
2023-04-21T09:17:13.221Z,50.866795
2023-04-21T09:18:13.741Z,50.866783
2023-04-21T09:19:13.131Z,50.866817
2023-04-21T09:20:13.125Z,50.866768
2023-04-21T09:21:13.166Z,50.866779
2023-04-21T09:22:13.115Z,50.866783
2023-04-21T09:23:13.106Z,50.866726
2023-04-21T09:24:13.108Z,50.866680
2023-04-21T09:25:13.090Z,50.866707
2023-04-21T09:26:13.176Z,50.866711
2023-04-21T09:27:13.063Z,50.866718
2023-04-21T09:28:13.064Z,50.866661
2023-04-21T09:29:13.095Z,50.866741
2023-04-21T09:30:13.082Z,50.866631
2023-04-21T09:31:13.817Z,50.866524
2023-04-21T09:32:13.033Z,50.866539
2023-04-21T09:33:27.299Z,50.866646
2023-04-21T09:34:15.093Z,50.866673
2023-04-21T09:35:13.033Z,50.866592
2023-04-21T09:36:13.661Z,50.866543
2023-04-21T09:37:13.019Z,50.866585
2023-04-21T09:38:13.063Z,50.866703
2023-04-21T09:39:34.478Z,50.866734
2023-04-21T09:40:15.015Z,50.866680
2023-04-21T09:41:13.016Z,50.866669
2023-04-21T09:42:13.340Z,50.866634
2023-04-21T09:43:12.949Z,50.866619
2023-04-21T09:44:12.931Z,50.866650
2023-04-21T09:46:14.002Z,50.866665
2023-04-21T09:47:12.926Z,50.866692
2023-04-21T09:48:12.916Z,50.866756
2023-04-21T09:49:12.916Z,50.866768
2023-04-21T09:50:13.125Z,50.866714
2023-04-21T09:51:30.800Z,50.866718
2023-04-21T09:52:18.953Z,50.866730
2023-04-21T09:53:14.045Z,50.866741
2023-04-21T09:54:28.355Z,50.866741
2023-04-21T09:55:14.842Z,50.866802
2023-04-21T09:56:12.872Z,50.866776
2023-04-21T09:57:12.838Z,50.866753
2023-04-21T09:58:12.811Z,50.866695
2023-04-21T09:59:12.827Z,50.866768
2023-04-21T10:00:12.835Z,50.866726
2023-04-21T10:01:12.799Z,50.866760
2023-04-21T10:02:13.133Z,50.866726
2023-04-21T10:03:13.876Z,50.866741
2023-04-21T10:04:13.005Z,50.866783
2023-04-21T10:05:12.946Z,50.866852
2023-04-21T10:06:13.874Z,50.866852
2023-04-21T10:07:12.770Z,50.866844
2023-04-21T10:08:13.283Z,50.866817
2023-04-21T10:09:12.743Z,50.866791
2023-04-21T10:10:13.272Z,50.866829
2023-04-21T10:11:12.710Z,50.866817
2023-04-21T10:12:12.725Z,50.866806
2023-04-21T10:19:21.760Z,50.866684
2023-04-21T10:20:21.655Z,50.866707
2023-04-21T10:21:21.638Z,50.866760
2023-04-21T10:22:22.544Z,50.866776
2023-04-21T10:23:21.596Z,50.866779
2023-04-21T10:24:21.817Z,50.866829
2023-04-21T10:25:21.593Z,50.866749
2023-04-21T10:26:21.594Z,50.866737
2023-04-21T10:27:21.589Z,50.866730
2023-04-21T10:28:21.626Z,50.866745
2023-04-21T10:29:21.616Z,50.866749
2023-04-21T10:30:21.591Z,50.866760
2023-04-21T10:31:21.630Z,50.866760
2023-04-21T10:32:21.581Z,50.866730
2023-04-21T10:33:21.540Z,50.866760
2023-04-21T10:34:21.837Z,50.866737
2023-04-21T10:35:21.561Z,50.866753
2023-04-21T10:36:21.510Z,50.866745
2023-04-21T10:37:22.046Z,50.866730
2023-04-21T10:38:21.500Z,50.866756
2023-04-21T10:39:21.576Z,50.866741
2023-04-21T10:40:33.015Z,50.866745
2023-04-21T10:41:22.476Z,50.866760
2023-04-21T10:42:21.453Z,50.866753
2023-04-21T10:43:21.445Z,50.866734
2023-04-21T10:44:21.792Z,50.866745
2023-04-21T10:45:21.430Z,50.866753
2023-04-21T10:46:21.483Z,50.866745
2023-04-21T10:47:21.464Z,50.866749
2023-04-21T10:48:21.415Z,50.866764
2023-04-21T10:49:21.468Z,50.866749
2023-04-21T10:50:21.389Z,50.866768
2023-04-21T10:51:22.411Z,50.866695
2023-04-21T10:52:21.402Z,50.866737
2023-04-21T10:53:21.393Z,50.866726
2023-04-21T10:54:21.494Z,50.866646
2023-04-21T10:55:21.586Z,50.866680
2023-04-21T10:56:21.680Z,50.866730
2023-04-21T10:57:21.411Z,50.866714
2023-04-21T10:58:54.495Z,50.866665
2023-04-21T10:59:21.324Z,50.866657
2023-04-21T11:00:21.385Z,50.866703
2023-04-21T11:01:22.255Z,50.866699
2023-04-21T11:02:23.192Z,50.866753
2023-04-21T11:03:22.464Z,50.866776
2023-04-21T11:04:21.848Z,50.866737
2023-04-21T11:05:27.987Z,50.866749
2023-04-21T11:06:21.255Z,50.866711
2023-04-21T11:07:21.306Z,50.866802
2023-04-21T11:08:22.224Z,50.866821
2023-04-21T11:09:22.069Z,50.866730
2023-04-21T11:10:21.292Z,50.866829
2023-04-21T11:11:21.275Z,50.866795
2023-04-21T11:12:24.041Z,50.866833
2023-04-21T11:13:22.203Z,50.866756
2023-04-21T11:14:21.445Z,50.866833
2023-04-21T11:15:21.179Z,50.866776
2023-04-21T11:16:21.216Z,50.866810
2023-04-21T11:17:21.183Z,50.866871
2023-04-21T11:18:21.156Z,50.866913
2023-04-21T11:19:21.152Z,50.866806
2023-04-21T11:20:21.149Z,50.866756
2023-04-21T11:21:22.182Z,50.866905
2023-04-21T11:22:21.991Z,50.866810
2023-04-21T11:23:21.113Z,50.866913
2023-04-21T11:24:21.357Z,50.866829
2023-04-21T11:25:22.077Z,50.866756
2023-04-21T11:26:21.101Z,50.866844
2023-04-21T11:27:21.090Z,50.866825
2023-04-21T11:28:21.575Z,50.866943
2023-04-21T11:29:21.083Z,50.866787
2023-04-21T11:30:21.085Z,50.867081
2023-04-21T11:31:21.085Z,50.867039
2023-04-21T11:32:21.032Z,50.866909
2023-04-21T11:33:21.111Z,50.866863
2023-04-21T11:34:21.288Z,50.866791
2023-04-21T11:35:22.019Z,50.866646
2023-04-21T11:36:21.041Z,50.866779
2023-04-21T11:37:21.006Z,50.866817
2023-04-21T11:38:23.873Z,50.866753
2023-04-21T11:39:21.797Z,50.866817
2023-04-21T11:40:22.015Z,50.866756
2023-04-21T11:41:20.986Z,50.866791
2023-04-21T11:42:20.956Z,50.866886
2023-04-21T11:43:20.956Z,50.866940
2023-04-21T11:44:20.945Z,50.866798
2023-04-21T11:45:22.463Z,50.866890
2023-04-21T11:46:21.982Z,50.866932
2023-04-21T11:47:21.091Z,50.866936
2023-04-21T11:48:20.936Z,50.866776
2023-04-21T11:49:20.912Z,50.866962
2023-04-21T11:50:20.899Z,50.866917
2023-04-21T11:51:22.336Z,50.866814
2023-04-21T11:52:21.904Z,50.866875
2023-04-21T11:53:20.926Z,50.866879
2023-04-21T11:54:20.867Z,50.867027
2023-04-21T11:55:20.858Z,50.866852
2023-04-21T11:56:20.859Z,50.866825
2023-04-21T11:57:20.872Z,50.866928
2023-04-21T11:58:20.824Z,50.866920
2023-04-21T11:59:25.418Z,50.866856
2023-04-21T12:00:20.849Z,50.866871
2023-04-21T12:01:20.841Z,50.866856
2023-04-21T12:02:21.643Z,50.866806
2023-04-21T12:03:53.657Z,50.866959
2023-04-21T12:04:20.898Z,50.867569
2023-04-21T12:05:20.828Z,50.867401
2023-04-21T12:06:20.840Z,50.867126
2023-04-21T12:07:20.755Z,50.867115
2023-04-21T12:08:20.742Z,50.866879
2023-04-21T12:09:20.808Z,50.866829
2023-04-21T12:10:20.720Z,50.866814
2023-04-21T12:11:20.727Z,50.866898
2023-04-21T12:12:20.708Z,50.866982
2023-04-21T12:13:20.724Z,50.867077
2023-04-21T12:14:20.715Z,50.867188
2023-04-21T12:15:20.695Z,50.867100
2023-04-21T12:16:20.702Z,50.867092
2023-04-21T12:17:20.671Z,50.866779
2023-04-21T12:18:20.670Z,50.866856
2023-04-21T12:19:20.671Z,50.866936
2023-04-21T12:20:20.664Z,50.866913
2023-04-21T12:21:20.629Z,50.866863
2023-04-21T12:22:20.622Z,50.866875
2023-04-21T12:23:20.608Z,50.866711
2023-04-21T12:24:20.611Z,50.866814
2023-04-21T12:25:20.613Z,50.866840
2023-04-21T12:26:20.626Z,50.866909
2023-04-21T12:27:20.583Z,50.866837
2023-04-21T12:28:20.594Z,50.866924
2023-04-21T12:29:20.566Z,50.867008